Time;durP1;ratioP1;P1;durP2;ratioP2;P2;SDS_P1;SDS_P2;PMS_P1;PMS_P2;Temp;Humidity;BMP_temperature;BMP_pressure;BME280_temperature;BME280_humidity;BME280_pressure;Samples;Min_cycle;Max_cycle;Signal;HPM_P1;HPM_P2
2021/12/19 00:00:38;;;;;;;7.88;5.32;;;7.60;99.90;;;;;;5038080;28;20080;-42
2021/12/19 00:08:46;;;;;;;7.20;5.15;;;7.50;99.90;;;;;;5026222;28;20045;-43
2021/12/19 00:11:14;;;;;;;7.40;5.40;;;7.50;99.90;;;;;;5034521;28;20049;-43
2021/12/19 00:13:40;;;;;;;7.43;5.57;;;7.50;99.90;;;;;;5025644;28;20017;-44
2021/12/19 00:16:07;;;;;;;7.10;5.78;;;7.50;99.90;;;;;;5038564;28;20421;-42
2021/12/19 00:18:32;;;;;;;7.25;5.63;;;7.50;99.90;;;;;;5026619;28;20132;-43
2021/12/19 00:20:58;;;;;;;7.00;5.90;;;7.50;99.90;;;;;;5037756;28;20128;-42
2021/12/19 00:23:26;;;;;;;8.60;6.60;;;7.50;99.90;;;;;;5026558;28;20053;-43
2021/12/19 00:25:52;;;;;;;7.55;6.10;;;7.50;99.90;;;;;;5036667;28;20068;-43
2021/12/19 00:28:17;;;;;;;7.05;6.07;;;7.40;99.90;;;;;;5028847;28;20051;-44
2021/12/19 00:30:43;;;;;;;7.47;5.75;;;7.40;99.90;;;;;;5037914;28;20387;-44
2021/12/19 00:33:09;;;;;;;6.97;5.75;;;7.40;99.90;;;;;;5033875;28;20184;-43
2021/12/19 00:35:35;;;;;;;9.57;7.03;;;7.40;99.90;;;;;;5034782;28;20039;-44
2021/12/19 00:38:00;;;;;;;7.53;5.82;;;7.40;99.90;;;;;;5036530;28;20055;-44
2021/12/19 00:40:26;;;;;;;6.63;4.97;;;7.40;99.90;;;;;;5032391;28;20392;-44
2021/12/19 00:43:02;;;;;;;6.55;5.43;;;7.40;99.90;;;;;;5038499;28;20033;-45
2021/12/19 00:45:31;;;;;;;8.35;6.15;;;7.40;99.90;;;;;;5031302;28;20075;-43
2021/12/19 00:47:57;;;;;;;10.18;6.68;;;7.40;99.90;;;;;;5039588;28;20028;-43
2021/12/19 00:50:24;;;;;;;7.80;5.65;;;7.40;99.90;;;;;;5030338;28;20571;-43
2021/12/19 00:52:50;;;;;;;8.60;5.93;;;7.40;99.90;;;;;;5040117;28;20053;-43
2021/12/19 00:55:17;;;;;;;9.38;6.30;;;7.50;99.90;;;;;;5030741;28;20045;-44
2021/12/19 00:57:43;;;;;;;9.07;6.57;;;7.50;99.90;;;;;;5040057;28;20044;-42
2021/12/19 01:00:12;;;;;;;8.05;6.00;;;7.50;99.90;;;;;;5028936;28;20401;-42
2021/12/19 01:02:38;;;;;;;7.30;5.35;;;7.40;99.90;;;;;;5036875;28;20033;-44
2021/12/19 01:05:07;;;;;;;8.35;5.15;;;7.50;99.90;;;;;;5008544;28;20113;-44
2021/12/19 01:07:32;;;;;;;7.55;5.00;;;7.50;99.90;;;;;;5039264;28;20075;-42
2021/12/19 01:09:58;;;;;;;6.85;4.55;;;7.50;99.90;;;;;;5028257;28;20835;-44
2021/12/19 01:12:25;;;;;;;6.28;4.85;;;7.50;99.90;;;;;;5039596;28;20040;-43
2021/12/19 01:14:51;;;;;;;6.93;5.00;;;7.60;99.90;;;;;;5029205;28;20021;-43
2021/12/19 01:17:16;;;;;;;6.40;4.68;;;7.60;99.90;;;;;;5034539;28;20035;-43
2021/12/19 01:19:44;;;;;;;7.00;5.15;;;7.60;99.90;;;;;;5031515;28;20022;-43
2021/12/19 01:22:10;;;;;;;8.45;6.15;;;7.60;99.90;;;;;;5033230;28;20053;-44
2021/12/19 01:24:36;;;;;;;7.80;5.43;;;7.60;99.90;;;;;;5033488;28;20032;-43
2021/12/19 01:27:02;;;;;;;8.25;5.88;;;7.60;99.90;;;;;;5030988;28;20025;-43
2021/12/19 01:29:27;;;;;;;9.90;6.45;;;7.50;99.90;;;;;;5036620;28;20033;-43
2021/12/19 01:31:53;;;;;;;10.07;7.03;;;7.60;99.90;;;;;;5027236;28;20116;-44
2021/12/19 01:34:19;;;;;;;9.48;6.40;;;7.60;99.90;;;;;;5038162;28;20393;-42
2021/12/19 01:36:44;;;;;;;8.43;5.47;;;7.60;99.90;;;;;;5028009;28;20057;-42
2021/12/19 01:39:11;;;;;;;9.35;5.93;;;7.60;99.90;;;;;;5036649;28;20025;-41
2021/12/19 01:41:49;;;;;;;10.95;6.90;;;7.70;99.90;;;;;;5026722;28;20814;-42
2021/12/19 01:44:15;;;;;;;10.38;6.40;;;7.70;99.90;;;;;;5035660;28;20013;-44
2021/12/19 01:46:40;;;;;;;12.65;8.40;;;7.70;99.90;;;;;;5045935;28;20043;-44
2021/12/19 01:49:06;;;;;;;11.52;7.65;;;7.70;99.90;;;;;;5034034;28;20489;-43
2021/12/19 01:51:32;;;;;;;16.70;9.77;;;7.70;99.90;;;;;;5046454;28;20033;-43
2021/12/19 01:53:58;;;;;;;14.88;8.82;;;7.70;99.90;;;;;;5033290;28;20029;-44
2021/12/19 01:56:24;;;;;;;15.05;8.50;;;7.70;99.90;;;;;;5046692;28;20036;-42
2021/12/19 01:58:49;;;;;;;13.73;8.10;;;7.70;99.90;;;;;;5036671;28;20022;-43
2021/12/19 02:01:15;;;;;;;15.00;9.10;;;7.70;99.90;;;;;;5043826;28;20031;-44
2021/12/19 02:03:41;;;;;;;12.93;7.10;;;7.60;99.90;;;;;;5041137;28;20053;-43
2021/12/19 02:06:06;;;;;;;11.43;6.95;;;7.60;99.90;;;;;;5041310;28;20029;-41
2021/12/19 02:08:35;;;;;;;12.25;6.95;;;7.60;99.90;;;;;;5043563;28;20034;-43
2021/12/19 02:11:00;;;;;;;11.30;7.38;;;7.50;99.90;;;;;;5040033;28;20060;-42
2021/12/19 02:13:26;;;;;;;12.50;8.13;;;7.50;99.90;;;;;;5044946;28;20102;-43
2021/12/19 02:15:51;;;;;;;10.18;6.57;;;7.50;99.90;;;;;;5037773;28;20123;-43
2021/12/19 02:18:21;;;;;;;11.43;6.97;;;7.50;99.90;;;;;;5046303;28;20571;-43
2021/12/19 02:20:56;;;;;;;10.95;7.40;;;7.50;99.90;;;;;;5035083;28;20091;-43
2021/12/19 02:23:24;;;;;;;10.65;6.22;;;7.50;99.90;;;;;;5046787;28;20029;-44
2021/12/19 02:25:50;;;;;;;9.00;5.70;;;7.60;99.90;;;;;;5036439;28;20045;-42
2021/12/19 02:28:17;;;;;;;12.00;6.05;;;7.60;99.90;;;;;;5046805;28;20052;-44
2021/12/19 02:30:43;;;;;;;8.70;5.55;;;7.60;99.90;;;;;;5034118;28;20329;-44
2021/12/19 02:33:13;;;;;;;8.95;5.63;;;7.60;99.90;;;;;;5047336;28;20520;-43
2021/12/19 02:35:43;;;;;;;8.68;5.18;;;7.60;99.90;;;;;;5033773;28;20025;-41
2021/12/19 02:38:32;;;;;;;8.63;5.05;;;7.60;99.90;;;;;;5047426;28;20039;-42
2021/12/19 02:48:48;;;;;;;8.23;5.30;;;7.50;99.90;;;;;;5046604;28;20052;-43
2021/12/19 02:51:14;;;;;;;9.18;6.03;;;7.50;99.90;;;;;;5034485;28;20021;-43
2021/12/19 02:53:41;;;;;;;7.43;5.18;;;7.50;99.90;;;;;;5047271;28;20040;-43
2021/12/19 02:56:10;;;;;;;9.07;5.50;;;7.50;99.90;;;;;;5033353;28;20071;-43
2021/12/19 02:58:39;;;;;;;10.10;5.90;;;7.50;99.90;;;;;;5047468;28;20036;-43
2021/12/19 03:01:08;;;;;;;9.27;5.35;;;7.60;99.90;;;;;;5035488;28;20025;-43
2021/12/19 03:03:36;;;;;;;11.73;7.35;;;7.60;99.90;;;;;;5045284;28;20025;-44
2021/12/19 03:06:02;;;;;;;13.77;8.35;;;7.70;99.90;;;;;;5037698;28;20029;-42
2021/12/19 03:08:29;;;;;;;14.13;8.57;;;7.70;99.90;;;;;;5043402;28;20575;-42
2021/12/19 03:11:40;;;;;;;15.18;8.98;;;7.70;99.90;;;;;;5039029;28;20028;-46
2021/12/19 03:19:18;;;;;;;12.65;7.72;;;7.70;99.90;;;;;;5007191;28;20474;-45
2021/12/19 03:21:44;;;;;;;11.05;6.60;;;7.60;99.90;;;;;;5031840;28;20489;-43
2021/12/19 03:24:09;;;;;;;11.70;6.93;;;7.60;99.90;;;;;;5027717;28;20025;-42
2021/12/19 03:26:35;;;;;;;9.50;5.75;;;7.70;99.90;;;;;;5034969;28;20021;-42
2021/12/19 03:29:01;;;;;;;12.43;6.57;;;7.70;99.90;;;;;;5031105;28;20128;-42
2021/12/19 03:31:26;;;;;;;9.70;5.93;;;7.70;99.90;;;;;;5031334;28;20080;-45
2021/12/19 03:33:52;;;;;;;8.32;5.13;;;7.70;99.90;;;;;;5033507;28;20036;-43
2021/12/19 03:36:17;;;;;;;10.50;5.97;;;7.80;99.90;;;;;;5029529;28;20032;-42
2021/12/19 03:38:44;;;;;;;8.32;5.18;;;7.80;99.90;;;;;;5036148;28;20025;-44
2021/12/19 03:43:39;;;;;;;10.18;4.40;;;7.80;99.90;;;;;;5037308;28;20033;-42
2021/12/19 03:46:05;;;;;;;7.78;5.30;;;7.90;99.90;;;;;;5027289;28;20520;-43
2021/12/19 03:48:30;;;;;;;7.15;4.32;;;7.90;99.90;;;;;;5037700;28;20044;-44
2021/12/19 03:50:56;;;;;;;7.43;4.70;;;7.90;99.90;;;;;;5026691;28;20096;-43
2021/12/19 03:53:22;;;;;;;7.95;4.57;;;7.90;99.90;;;;;;5037614;28;20099;-43
2021/12/19 03:55:49;;;;;;;6.50;4.22;;;7.90;99.90;;;;;;5026443;28;20033;-43
2021/12/19 03:58:15;;;;;;;6.07;4.05;;;7.90;99.90;;;;;;5039032;28;20186;-44
2021/12/19 04:00:42;;;;;;;7.15;4.57;;;7.90;99.90;;;;;;5025914;28;20040;-42
2021/12/19 04:03:09;;;;;;;6.80;4.60;;;7.90;99.90;;;;;;5038606;28;20070;-42
2021/12/19 04:05:38;;;;;;;6.20;4.00;;;7.90;99.90;;;;;;5031343;28;20025;-42
2021/12/19 04:08:05;;;;;;;7.10;4.38;;;7.90;99.90;;;;;;5038492;28;20033;-43
2021/12/19 04:10:31;;;;;;;7.30;4.60;;;7.90;99.90;;;;;;5033695;28;20401;-43
2021/12/19 04:12:57;;;;;;;7.07;4.68;;;7.90;99.90;;;;;;5035655;28;20032;-43
2021/12/19 04:15:23;;;;;;;8.07;4.97;;;7.90;99.90;;;;;;5036371;28;20033;-42
2021/12/19 04:17:49;;;;;;;8.95;5.47;;;7.90;99.90;;;;;;5033507;28;20801;-44
2021/12/19 04:20:15;;;;;;;8.80;5.00;;;7.90;99.90;;;;;;5038197;28;20032;-44
2021/12/19 04:22:42;;;;;;;8.13;5.10;;;7.90;99.90;;;;;;5030899;28;20046;-43
2021/12/19 04:25:08;;;;;;;7.68;4.85;;;7.90;99.90;;;;;;5039056;28;20071;-43
2021/12/19 04:27:34;;;;;;;7.53;5.00;;;7.90;99.90;;;;;;5048005;28;20052;-44
2021/12/19 04:30:00;;;;;;;8.20;4.90;;;7.90;99.90;;;;;;5038139;28;20587;-43
2021/12/19 04:32:31;;;;;;;9.10;5.25;;;7.90;99.90;;;;;;5049287;28;20120;-43
2021/12/19 04:34:57;;;;;;;12.23;6.53;;;8.00;99.90;;;;;;5037971;28;20025;-43
2021/12/19 04:53:33;;;;;;;14.68;6.97;;;8.00;99.90;;;;;;5048064;28;20389;-43
2021/12/19 04:56:23;;;;;;;10.23;6.65;;;8.10;99.90;;;;;;5038740;28;20040;-42
2021/12/19 05:04:06;;;;;;;11.02;6.97;;;8.10;99.90;;;;;;5030294;28;20033;-44
2021/12/19 05:14:46;;;;;;;12.70;7.70;;;8.00;99.90;;;;;;5024996;28;20033;-44
2021/12/19 05:17:18;;;;;;;13.63;8.23;;;8.00;99.90;;;;;;5040704;28;20036;-44
2021/12/19 05:19:49;;;;;;;11.43;7.50;;;8.00;99.90;;;;;;5046007;28;20068;-44
2021/12/19 05:22:15;;;;;;;10.40;6.75;;;8.00;99.90;;;;;;5039483;28;20079;-44
2021/12/19 05:24:47;;;;;;;10.32;6.70;;;8.10;99.90;;;;;;5046816;28;20049;-43
2021/12/19 05:27:13;;;;;;;10.00;5.82;;;8.00;99.90;;;;;;5027846;28;20119;-45
2021/12/19 05:29:39;;;;;;;10.43;6.32;;;8.10;99.90;;;;;;5047327;28;20124;-44
2021/12/19 05:32:05;;;;;;;8.40;6.25;;;8.10;99.90;;;;;;5036672;28;20067;-44
2021/12/19 05:34:31;;;;;;;8.80;5.65;;;8.10;99.90;;;;;;5047498;28;20100;-43
2021/12/19 05:45:19;;;;;;;7.88;5.50;;;8.20;99.90;;;;;;5029250;28;20041;-44
2021/12/19 05:47:48;;;;;;;8.55;5.10;;;8.20;99.90;;;;;;5039901;28;20044;-43
2021/12/19 05:50:16;;;;;;;8.13;4.93;;;8.20;99.90;;;;;;5029873;28;20033;-42
2021/12/19 05:52:42;;;;;;;7.28;5.22;;;8.30;99.90;;;;;;5038403;28;20610;-43
2021/12/19 05:55:08;;;;;;;10.57;4.93;;;8.20;99.90;;;;;;5028632;28;20156;-43
2021/12/19 05:57:34;;;;;;;5.43;4.38;;;8.30;99.90;;;;;;5039899;28;20025;-42
2021/12/19 06:00:00;;;;;;;5.68;4.28;;;8.30;99.90;;;;;;5027496;28;20030;-43
2021/12/19 06:02:26;;;;;;;5.72;4.68;;;8.30;99.90;;;;;;5040630;28;20025;-44
2021/12/19 06:04:52;;;;;;;6.47;4.10;;;8.30;99.90;;;;;;5027976;28;20689;-44
2021/12/19 06:07:18;;;;;;;5.82;4.00;;;8.30;99.90;;;;;;5038351;28;20708;-43
2021/12/19 06:09:43;;;;;;;6.25;4.53;;;8.30;99.90;;;;;;5029286;28;20037;-43
2021/12/19 06:12:09;;;;;;;6.85;4.45;;;8.30;99.90;;;;;;5035283;28;20013;-42
2021/12/19 06:14:35;;;;;;;5.97;4.40;;;8.30;99.90;;;;;;5032155;28;20083;-43
2021/12/19 06:17:02;;;;;;;6.47;3.88;;;8.30;99.90;;;;;;5033408;28;20017;-43
2021/12/19 06:19:28;;;;;;;5.55;4.03;;;8.30;99.90;;;;;;5033463;28;20060;-43
2021/12/19 06:21:54;;;;;;;7.70;4.25;;;8.30;99.90;;;;;;5030934;28;20046;-42
2021/12/19 06:24:20;;;;;;;6.65;4.38;;;8.30;99.90;;;;;;5036936;28;20025;-44
2021/12/19 06:26:45;;;;;;;6.18;4.40;;;8.30;99.90;;;;;;5026914;28;20018;-42
2021/12/19 06:29:11;;;;;;;5.85;3.88;;;8.30;99.90;;;;;;5039357;28;20040;-43
2021/12/19 06:31:38;;;;;;;4.57;3.00;;;8.40;99.90;;;;;;5029198;28;20025;-43
2021/12/19 06:34:03;;;;;;;4.18;3.33;;;8.40;99.90;;;;;;5038027;28;20032;-44
2021/12/19 06:36:29;;;;;;;3.92;3.05;;;8.40;99.90;;;;;;5027835;28;20369;-43
2021/12/19 06:38:55;;;;;;;4.25;3.15;;;8.40;99.90;;;;;;5034753;28;20779;-43
2021/12/19 06:41:21;;;;;;;3.08;1.98;;;8.30;99.90;;;;;;5047084;28;20029;-43
2021/12/19 06:43:50;;;;;;;2.97;1.73;;;8.30;99.90;;;;;;5034673;28;20051;-43
2021/12/19 06:46:15;;;;;;;2.35;1.67;;;8.30;99.90;;;;;;5047410;28;20032;-44
2021/12/19 06:48:41;;;;;;;1.83;1.35;;;8.30;99.90;;;;;;5034766;28;20503;-44
2021/12/19 06:51:07;;;;;;;1.35;1.15;;;8.30;99.90;;;;;;5045518;28;20025;-42
2021/12/19 06:53:32;;;;;;;1.77;1.20;;;8.20;99.90;;;;;;5038619;28;20099;-42
2021/12/19 06:55:58;;;;;;;1.50;1.30;;;8.20;99.90;;;;;;5042756;28;20025;-41
2021/12/19 06:58:24;;;;;;;1.98;1.30;;;8.10;99.90;;;;;;5041251;28;20013;-43
2021/12/19 07:00:50;;;;;;;1.83;1.25;;;8.10;99.90;;;;;;5040631;28;20025;-43
2021/12/19 07:03:16;;;;;;;2.42;1.60;;;8.00;99.90;;;;;;5043031;28;20020;-43
2021/12/19 07:05:43;;;;;;;2.20;1.20;;;7.90;99.90;;;;;;5037748;28;20741;-45
2021/12/19 07:08:09;;;;;;;1.67;1.00;;;7.90;99.90;;;;;;5045217;28;20071;-45
2021/12/19 07:10:37;;;;;;;2.25;1.38;;;7.80;99.90;;;;;;5035178;28;20028;-43
2021/12/19 07:13:03;;;;;;;2.35;0.90;;;7.80;99.90;;;;;;5044871;28;20087;-42
2021/12/19 07:15:29;;;;;;;1.08;0.77;;;7.80;99.90;;;;;;5035000;28;20048;-42
2021/12/19 07:17:55;;;;;;;0.77;0.70;;;7.70;99.90;;;;;;5047078;28;20036;-44
2021/12/19 07:20:21;;;;;;;1.13;0.80;;;7.70;99.90;;;;;;5034291;28;20052;-43
2021/12/19 07:22:46;;;;;;;1.95;0.88;;;7.70;99.90;;;;;;5045754;28;20134;-44
2021/12/19 07:25:12;;;;;;;1.27;0.80;;;7.60;99.90;;;;;;5033986;28;20805;-43
2021/12/19 07:27:37;;;;;;;0.90;0.60;;;7.60;99.90;;;;;;5046982;28;20469;-43
2021/12/19 07:30:06;;;;;;;1.48;0.70;;;7.60;99.90;;;;;;5034924;28;20048;-43
2021/12/19 07:32:33;;;;;;;1.30;0.70;;;7.50;99.90;;;;;;5045856;28;20029;-43
2021/12/19 07:34:58;;;;;;;1.55;0.73;;;7.50;99.90;;;;;;5037591;28;20195;-43
2021/12/19 07:37:24;;;;;;;0.90;0.80;;;7.60;99.90;;;;;;5044318;28;20557;-42
2021/12/19 07:39:57;;;;;;;1.63;1.02;;;7.60;99.90;;;;;;5044681;28;20567;-44
2021/12/19 07:42:23;;;;;;;1.23;0.73;;;7.60;99.90;;;;;;5045654;28;20048;-43
2021/12/19 07:44:49;;;;;;;1.48;0.70;;;7.60;99.90;;;;;;5045073;28;20084;-44
2021/12/19 07:47:15;;;;;;;1.40;0.75;;;7.60;99.90;;;;;;5043456;28;20361;-44
2021/12/19 07:49:40;;;;;;;0.98;0.60;;;7.60;99.90;;;;;;5047928;28;20037;-43
2021/12/19 07:52:06;;;;;;;1.52;1.00;;;7.60;99.90;;;;;;5039456;28;20071;-44
2021/12/19 07:54:32;;;;;;;1.17;0.88;;;7.70;99.90;;;;;;5049385;28;20385;-43
2021/12/19 07:57:00;;;;;;;2.17;0.90;;;7.60;99.90;;;;;;5039282;28;20032;-44
2021/12/19 07:59:26;;;;;;;2.10;0.80;;;7.60;99.90;;;;;;5048830;28;20078;-42
2021/12/19 08:01:54;;;;;;;1.42;1.15;;;7.60;99.90;;;;;;5038883;28;20037;-43
2021/12/19 08:04:20;;;;;;;2.50;1.00;;;7.60;99.90;;;;;;5050721;28;20159;-42
2021/12/19 08:06:45;;;;;;;1.38;1.10;;;7.60;99.90;;;;;;5036450;28;20131;-42
2021/12/19 08:09:21;;;;;;;1.08;0.90;;;7.60;99.90;;;;;;5050803;28;20041;-44
2021/12/19 08:11:47;;;;;;;2.15;1.42;;;7.60;99.90;;;;;;5036119;28;20183;-43
2021/12/19 08:14:16;;;;;;;1.98;1.38;;;7.60;99.90;;;;;;5050361;28;20650;-45
2021/12/19 08:16:43;;;;;;;1.05;0.95;;;7.50;99.90;;;;;;5038302;28;20033;-44
2021/12/19 08:19:10;;;;;;;1.30;1.00;;;7.50;99.90;;;;;;5048433;28;20021;-42
2021/12/19 08:21:36;;;;;;;1.92;1.10;;;7.50;99.90;;;;;;5040087;28;20139;-44
2021/12/19 08:24:08;;;;;;;1.20;0.90;;;7.50;99.90;;;;;;5046877;28;20544;-43
2021/12/19 08:26:34;;;;;;;1.40;1.00;;;7.50;99.90;;;;;;5041246;28;20091;-43
2021/12/19 08:28:59;;;;;;;0.98;0.85;;;7.60;99.90;;;;;;5044991;28;20434;-44
2021/12/19 08:31:25;;;;;;;1.15;1.00;;;7.60;99.90;;;;;;5044540;28;20021;-44
2021/12/19 08:33:50;;;;;;;1.67;1.13;;;7.60;99.90;;;;;;5041309;28;20473;-44
2021/12/19 08:36:16;;;;;;;3.00;1.20;;;7.50;99.90;;;;;;5047234;28;20025;-44
2021/12/19 08:38:42;;;;;;;1.70;1.15;;;7.50;99.90;;;;;;5036626;28;20021;-42
2021/12/19 08:41:08;;;;;;;1.70;1.10;;;7.50;99.90;;;;;;5030126;28;20075;-43
2021/12/19 08:43:33;;;;;;;0.80;0.80;;;7.50;99.90;;;;;;5037212;28;20162;-44
2021/12/19 08:45:59;;;;;;;1.08;0.98;;;7.50;99.90;;;;;;5029499;28;20061;-43
2021/12/19 08:48:25;;;;;;;1.52;0.90;;;7.50;99.90;;;;;;5037830;28;20029;-44
2021/12/19 08:50:51;;;;;;;1.13;0.85;;;7.50;99.90;;;;;;5029006;28;20576;-43
2021/12/19 08:53:17;;;;;;;1.13;0.88;;;7.60;99.90;;;;;;5040101;28;20075;-44
2021/12/19 08:55:43;;;;;;;0.90;0.80;;;7.70;99.90;;;;;;5028460;28;20499;-43
2021/12/19 08:58:09;;;;;;;0.98;0.80;;;7.70;99.90;;;;;;5040006;28;20032;-43
2021/12/19 09:00:35;;;;;;;0.85;0.70;;;7.70;99.90;;;;;;5028876;28;20018;-44
2021/12/19 09:03:01;;;;;;;0.80;0.70;;;7.70;99.90;;;;;;5036934;28;20029;-43
2021/12/19 09:05:31;;;;;;;0.88;0.70;;;7.80;99.90;;;;;;5031475;28;20026;-44
2021/12/19 09:07:57;;;;;;;1.35;0.82;;;7.80;99.90;;;;;;5035101;28;20021;-44
2021/12/19 09:10:23;;;;;;;1.73;0.68;;;7.80;99.90;;;;;;5033205;28;20087;-44
2021/12/19 09:12:49;;;;;;;0.88;0.70;;;7.80;99.90;;;;;;5033246;28;20021;-42
2021/12/19 09:15:15;;;;;;;0.90;0.60;;;7.80;99.90;;;;;;5034986;28;20107;-44
2021/12/19 09:17:41;;;;;;;1.13;0.90;;;7.80;99.90;;;;;;5030430;28;20037;-43
2021/12/19 09:20:08;;;;;;;1.92;0.90;;;7.90;99.90;;;;;;5038406;28;20040;-43
2021/12/19 09:22:34;;;;;;;1.20;0.90;;;7.90;99.90;;;;;;5028027;28;20053;-42
2021/12/19 09:24:59;;;;;;;2.08;1.00;;;7.90;99.90;;;;;;5039295;28;20033;-44
2021/12/19 09:27:25;;;;;;;1.48;1.30;;;8.00;99.90;;;;;;5029044;28;20516;-43
2021/12/19 09:29:52;;;;;;;2.60;1.50;;;7.90;99.90;;;;;;5034648;28;20030;-44
2021/12/19 09:32:18;;;;;;;1.75;1.30;;;7.90;99.90;;;;;;5028111;28;20544;-43
2021/12/19 09:34:43;;;;;;;1.25;1.15;;;7.90;99.90;;;;;;5039874;28;20035;-43
2021/12/19 09:37:09;;;;;;;0.90;0.80;;;7.90;99.90;;;;;;5027136;28;20021;-44
2021/12/19 09:39:34;;;;;;;2.15;1.05;;;8.00;99.90;;;;;;5039756;28;20115;-43
2021/12/19 09:42:08;;;;;;;1.70;1.20;;;8.00;99.90;;;;;;5027783;28;20053;-43
2021/12/19 09:44:35;;;;;;;1.50;1.10;;;8.00;99.90;;;;;;5037346;28;20035;-43
2021/12/19 09:47:01;;;;;;;1.45;1.20;;;8.00;99.90;;;;;;5028950;28;20104;-43
2021/12/19 09:49:27;;;;;;;2.35;1.20;;;8.00;99.90;;;;;;5035669;28;20025;-42
2021/12/19 09:51:53;;;;;;;1.92;1.30;;;8.00;99.90;;;;;;5029416;28;20033;-42
2021/12/19 09:54:19;;;;;;;2.00;1.48;;;8.00;99.90;;;;;;5032749;28;20025;-43
2021/12/19 09:56:45;;;;;;;3.33;2.05;;;8.00;99.90;;;;;;5040747;28;20384;-43
2021/12/19 09:59:21;;;;;;;2.78;1.90;;;8.00;99.90;;;;;;5042678;28;20035;-44
2021/12/19 10:01:49;;;;;;;2.40;1.83;;;8.00;99.90;;;;;;5038806;28;20536;-43
2021/12/19 10:04:34;;;;;;;4.20;1.90;;;8.00;99.90;;;;;;5043666;28;20017;-43
2021/12/19 10:07:18;;;;;;;4.30;2.50;;;8.10;99.90;;;;;;5040072;28;20041;-44
2021/12/19 10:09:57;;;;;;;4.95;2.65;;;8.10;99.90;;;;;;5041467;28;20083;-43
2021/12/19 10:15:09;;;;;;;3.55;2.50;;;8.10;99.90;;;;;;5040453;28;20033;-43
2021/12/19 10:17:36;;;;;;;6.68;2.85;;;8.10;99.90;;;;;;5042108;28;20159;-43
2021/12/19 10:20:06;;;;;;;6.10;3.40;;;8.20;99.90;;;;;;5041459;28;20061;-44
2021/12/19 10:22:34;;;;;;;5.50;3.47;;;8.10;99.90;;;;;;5039649;28;20068;-43
2021/12/19 10:25:09;;;;;;;6.95;4.10;;;8.10;99.90;;;;;;5043438;28;20493;-43
2021/12/19 10:27:36;;;;;;;7.30;4.22;;;8.10;99.90;;;;;;5037316;28;20433;-43
2021/12/19 10:30:23;;;;;;;9.27;3.90;;;8.10;99.90;;;;;;5044996;28;20040;-43
2021/12/19 10:32:53;;;;;;;7.35;3.50;;;8.10;99.90;;;;;;5038081;28;20370;-43
2021/12/19 10:35:23;;;;;;;7.35;3.55;;;8.10;99.90;;;;;;5043531;28;20384;-45
2021/12/19 10:37:49;;;;;;;4.95;3.20;;;8.10;99.90;;;;;;5026313;28;20347;-43
2021/12/19 10:40:15;;;;;;;6.47;3.67;;;8.10;99.90;;;;;;5027958;28;20465;-44
2021/12/19 10:42:50;;;;;;;7.38;4.43;;;8.20;99.90;;;;;;5038392;28;20056;-42
2021/12/19 10:45:29;;;;;;;9.38;3.25;;;8.20;99.90;;;;;;5029428;28;20021;-43
2021/12/19 10:48:13;;;;;;;6.00;3.47;;;8.20;99.90;;;;;;5024658;28;20051;-43
2021/12/19 10:50:52;;;;;;;5.97;3.47;;;8.20;99.90;;;;;;5045540;28;20029;-42
2021/12/19 10:53:22;;;;;;;6.18;3.63;;;8.20;99.90;;;;;;5038410;28;20069;-43
2021/12/19 10:55:49;;;;;;;6.65;3.25;;;8.30;99.90;;;;;;5045028;28;20027;-43
2021/12/19 10:58:37;;;;;;;8.73;3.60;;;8.30;99.90;;;;;;5025542;28;20112;-44
2021/12/19 11:01:14;;;;;;;4.97;2.92;;;8.20;99.90;;;;;;5043978;28;20632;-43
2021/12/19 11:03:45;;;;;;;9.68;3.30;;;8.20;99.90;;;;;;5036844;28;20120;-42
2021/12/19 11:06:25;;;;;;;4.78;3.00;;;8.20;99.90;;;;;;5044684;28;20029;-43
2021/12/19 11:08:52;;;;;;;9.65;3.53;;;8.30;99.90;;;;;;5036672;28;20029;-43
2021/12/19 11:11:32;;;;;;;7.50;3.85;;;8.30;99.90;;;;;;5044941;28;20100;-43
2021/12/19 11:13:58;;;;;;;9.05;4.40;;;8.30;99.90;;;;;;5027885;28;20025;-42
2021/12/19 11:16:24;;;;;;;6.65;3.85;;;8.20;99.90;;;;;;5043986;28;20476;-43
2021/12/19 11:18:50;;;;;;;7.82;4.20;;;8.20;99.90;;;;;;5035197;28;20093;-43
2021/12/19 11:21:17;;;;;;;8.73;3.83;;;8.20;99.90;;;;;;5044831;28;20476;-44
2021/12/19 11:23:43;;;;;;;7.50;4.40;;;8.20;99.90;;;;;;5035007;28;20887;-43
2021/12/19 11:26:09;;;;;;;12.45;5.10;;;8.20;99.90;;;;;;5046469;28;20032;-43
2021/12/19 11:28:35;;;;;;;9.27;4.80;;;8.20;99.90;;;;;;5033220;28;20021;-43
2021/12/19 11:31:01;;;;;;;9.13;4.28;;;8.10;99.90;;;;;;5046054;28;20388;-44
2021/12/19 11:33:39;;;;;;;11.65;4.70;;;8.10;99.90;;;;;;5033476;28;20022;-45
2021/12/19 11:36:07;;;;;;;8.32;4.63;;;8.10;99.90;;;;;;5045875;28;20033;-46
2021/12/19 11:38:36;;;;;;;9.80;4.30;;;8.20;99.90;;;;;;5033449;28;20030;-32
2021/12/19 11:41:09;;;;;;;7.57;4.10;;;8.30;99.90;;;;;;5026088;28;20025;-36
2021/12/19 11:43:37;;;;;;;5.32;3.58;;;8.30;99.90;;;;;;5036362;28;20488;-33
2021/12/19 11:46:24;;;;;;;7.22;3.47;;;8.30;99.90;;;;;;5026818;28;20206;-44
2021/12/19 11:49:19;;;;;;;7.30;4.00;;;8.40;99.90;;;;;;5038079;28;20033;-43
2021/12/19 11:51:46;;;;;;;9.45;4.95;;;8.40;99.90;;;;;;5005636;28;20026;-44
2021/12/19 11:54:15;;;;;;;8.98;4.85;;;8.40;99.90;;;;;;5037079;28;20410;-43
2021/12/19 11:57:00;;;;;;;8.68;4.10;;;8.30;99.90;;;;;;5026668;28;20040;-43
2021/12/19 11:59:26;;;;;;;11.13;5.03;;;8.30;99.90;;;;;;5038921;28;20083;-44
2021/12/19 12:01:51;;;;;;;8.93;5.35;;;8.30;99.90;;;;;;5026226;28;20037;-44
2021/12/19 12:04:19;;;;;;;8.80;4.30;;;8.20;99.90;;;;;;5036062;28;20021;-42
2021/12/19 12:06:58;;;;;;;8.00;4.45;;;8.20;99.90;;;;;;5026470;28;20484;-43
2021/12/19 12:09:39;;;;;;;5.43;3.80;;;8.20;99.90;;;;;;5035897;28;20048;-44
2021/12/19 12:12:08;;;;;;;7.40;3.58;;;8.30;99.90;;;;;;5002680;28;20141;-45
2021/12/19 12:14:38;;;;;;;6.93;3.85;;;8.40;99.90;;;;;;5031005;28;20033;-44
2021/12/19 12:17:10;;;;;;;12.10;4.03;;;8.50;99.90;;;;;;5026650;28;20033;-43
2021/12/19 12:19:41;;;;;;;8.85;7.00;;;8.40;99.90;;;;;;5034729;28;20037;-43
2021/12/19 12:22:48;;;;;;;8.60;5.05;;;8.40;99.90;;;;;;5027706;28;20049;-44
2021/12/19 12:25:42;;;;;;;8.07;3.83;;;8.40;99.90;;;;;;5040568;28;20083;-45
2021/12/19 12:28:09;;;;;;;8.77;3.65;;;8.40;99.90;;;;;;5029226;28;20460;-44
2021/12/19 12:30:40;;;;;;;5.45;3.58;;;8.30;99.90;;;;;;5041446;28;20041;-43
2021/12/19 12:33:08;;;;;;;4.70;3.30;;;8.30;99.90;;;;;;5029561;28;20032;-44
2021/12/19 12:35:37;;;;;;;6.00;3.03;;;8.40;99.90;;;;;;5039786;28;20131;-43
2021/12/19 12:38:04;;;;;;;4.75;2.90;;;8.40;99.90;;;;;;5029380;28;20033;-43
2021/12/19 12:41:03;;;;;;;6.45;3.13;;;8.40;99.90;;;;;;5039742;28;20021;-44
2021/12/19 12:43:35;;;;;;;5.80;3.10;;;8.50;99.90;;;;;;5010111;28;20026;-43
2021/12/19 12:46:14;;;;;;;8.10;3.60;;;8.50;99.90;;;;;;5039519;28;20057;-44
2021/12/19 12:48:54;;;;;;;8.52;3.58;;;8.40;99.90;;;;;;5029852;28;20335;-43
2021/12/19 12:51:39;;;;;;;7.50;3.38;;;8.40;99.90;;;;;;5041958;28;20025;-44
2021/12/19 12:54:14;;;;;;;4.40;2.80;;;8.30;99.90;;;;;;5028801;28;20387;-44
2021/12/19 12:56:47;;;;;;;5.13;3.15;;;8.30;99.90;;;;;;5035851;28;20380;-42
2021/12/19 12:59:19;;;;;;;6.15;3.13;;;8.30;99.90;;;;;;5049903;28;20028;-45
2021/12/19 13:01:52;;;;;;;5.03;3.00;;;8.40;99.90;;;;;;5035963;28;20017;-43
2021/12/19 13:04:23;;;;;;;6.03;3.33;;;8.40;99.90;;;;;;5043461;28;20100;-43
2021/12/19 13:06:50;;;;;;;5.15;3.13;;;8.40;99.90;;;;;;5040359;28;20111;-43
2021/12/19 13:09:20;;;;;;;7.57;4.55;;;8.50;99.90;;;;;;5027595;28;20065;-43
2021/12/19 13:11:49;;;;;;;5.20;3.88;;;8.50;99.90;;;;;;5040659;28;20112;-43
2021/12/19 13:14:28;;;;;;;5.05;3.10;;;8.50;99.90;;;;;;5028333;28;20029;-43
2021/12/19 13:16:57;;;;;;;5.70;2.67;;;8.50;99.90;;;;;;5040538;28;20078;-42
2021/12/19 13:19:50;;;;;;;6.10;3.60;;;8.50;99.90;;;;;;5029694;28;20037;-43
2021/12/19 13:22:24;;;;;;;4.97;3.33;;;8.40;99.90;;;;;;5039401;28;20049;-44
2021/12/19 13:24:52;;;;;;;5.68;2.72;;;8.40;99.90;;;;;;5028583;28;20037;-43
2021/12/19 13:27:25;;;;;;;5.72;2.88;;;8.40;99.90;;;;;;5041271;28;20021;-44
2021/12/19 13:30:02;;;;;;;;;;;8.40;99.90;;;;;;5028557;28;20041;-44
2021/12/19 13:32:49;;;;;;;6.10;2.58;;;8.40;99.90;;;;;;5040882;28;19954;-45
2021/12/19 13:35:29;;;;;;;4.18;2.60;;;8.40;99.90;;;;;;5028077;28;20029;-44
2021/12/19 13:38:02;;;;;;;3.40;2.70;;;8.30;99.90;;;;;;5040074;28;20489;-42
2021/12/19 13:40:38;;;;;;;5.35;3.22;;;8.30;99.90;;;;;;5027769;28;20822;-44
2021/12/19 13:43:11;;;;;;;7.53;3.80;;;8.40;99.90;;;;;;5039677;28;20029;-44
2021/12/19 13:45:56;;;;;;;5.45;3.30;;;8.30;99.90;;;;;;5028399;28;20481;-43
2021/12/19 13:48:30;;;;;;;5.40;2.75;;;8.30;99.90;;;;;;5035850;28;20035;-44
2021/12/19 13:50:55;;;;;;;7.03;2.72;;;8.40;99.90;;;;;;5047528;28;20109;-43
2021/12/19 13:53:21;;;;;;;4.28;2.80;;;8.40;99.90;;;;;;5037843;28;20464;-44
2021/12/19 13:55:58;;;;;;;4.03;2.58;;;8.50;99.90;;;;;;5047531;28;20763;-43
2021/12/19 13:58:30;;;;;;;5.65;2.58;;;8.50;99.90;;;;;;5034808;28;20030;-43
2021/12/19 14:00:56;;;;;;;5.32;2.83;;;8.50;99.90;;;;;;5047829;28;20032;-43
2021/12/19 14:03:38;;;;;;;2.97;2.47;;;8.50;99.90;;;;;;5035143;28;20033;-44
2021/12/19 14:06:11;;;;;;;4.32;2.60;;;8.60;99.90;;;;;;5007822;28;20739;-42